Mount Zion, North Carolina
Current Conditions -  °F | °C
As of 4:54 AM on Monday 22 Dec 2014 (Local Time) from KGSO Reporting Station
Light Rain Light Rain  
Wind Chill: 30°   Ceiling: 2700
Heat Index: 36°   Visibility: 3mi
Dew Point: 34°   Wind: 7mph
Humidity: 93%   Direction: 30°NNE
Pressure: 30.15"   Gusts: NA
Location:  36.1157°N, 79.7378°W
Report Text: KGSO 220954Z 03006KT 3SM -RA BR SCT007 BKN027 OVC034 02/01 A3015 RMK AO2 SLP212 P0004 T00220011
Loading
Personal Weather Stations






























Interactive Weather Map New forecast layout! Learn more

10-Day Weather Forecast

Advertisements
Track Severe Weather on mobile